createdAt,value
2017-12-29T00:01:03.147Z,5.35
2017-12-29T00:03:31.340Z,4.32
2017-12-29T00:05:59.447Z,3.67
2017-12-29T00:08:27.587Z,4.22
2017-12-29T00:10:55.700Z,4.10
2017-12-29T00:13:24.589Z,4.55
2017-12-29T00:15:53.516Z,3.83
2017-12-29T00:18:21.627Z,3.97
2017-12-29T00:20:49.748Z,4.12
2017-12-29T00:23:17.895Z,4.37
2017-12-29T00:25:46.819Z,4.43
2017-12-29T00:28:15.002Z,3.62
2017-12-29T00:30:43.132Z,4.55
2017-12-29T00:33:11.260Z,4.30
2017-12-29T00:35:39.376Z,2.90
2017-12-29T00:38:07.504Z,3.67
2017-12-29T00:40:35.638Z,4.45
2017-12-29T00:43:04.523Z,3.40
2017-12-29T00:45:33.451Z,3.80
2017-12-29T00:48:01.579Z,2.95
2017-12-29T00:50:29.688Z,3.70
2017-12-29T00:52:58.231Z,4.65
2017-12-29T00:55:26.354Z,3.92
2017-12-29T00:57:54.468Z,4.20
2017-12-29T01:00:22.608Z,4.80
2017-12-29T01:02:50.735Z,4.43
2017-12-29T01:05:19.640Z,3.47
2017-12-29T01:07:48.543Z,3.85
2017-12-29T01:10:16.668Z,4.05
2017-12-29T01:12:44.775Z,3.80
2017-12-29T01:15:13.681Z,4.22
2017-12-29T01:17:41.788Z,3.83
2017-12-29T01:20:09.921Z,3.10
2017-12-29T01:22:38.061Z,3.12
2017-12-29T01:25:06.218Z,3.55
2017-12-29T01:27:34.362Z,3.80
2017-12-29T01:30:02.523Z,2.85
2017-12-29T01:32:30.656Z,3.97
2017-12-29T01:34:58.781Z,3.65
2017-12-29T01:37:26.923Z,3.60
2017-12-29T01:39:55.839Z,3.75
2017-12-29T01:42:23.952Z,3.62
2017-12-29T01:44:52.099Z,2.92
2017-12-29T01:47:20.207Z,2.90
2017-12-29T01:49:48.325Z,3.50
2017-12-29T01:52:16.456Z,3.05
2017-12-29T01:54:44.580Z,3.35
2017-12-29T01:57:12.695Z,3.25
2017-12-29T01:59:40.824Z,3.30
2017-12-29T02:02:08.938Z,3.83
2017-12-29T02:04:37.072Z,4.50
2017-12-29T02:07:05.245Z,4.00
2017-12-29T02:09:33.363Z,2.60
2017-12-29T02:12:01.483Z,3.10
2017-12-29T02:14:29.632Z,3.90
2017-12-29T02:16:58.527Z,3.65
2017-12-29T02:19:27.472Z,3.80
2017-12-29T02:21:55.591Z,2.00
2017-12-29T02:24:24.480Z,2.72
2017-12-29T02:26:53.375Z,2.87
2017-12-29T02:29:22.295Z,2.85
2017-12-29T02:31:50.398Z,4.62
2017-12-29T02:34:18.519Z,2.70
2017-12-29T02:36:47.423Z,4.00
2017-12-29T02:39:15.604Z,3.95
2017-12-29T02:41:44.468Z,2.80
2017-12-29T02:44:13.380Z,2.60
2017-12-29T02:46:42.860Z,3.33
2017-12-29T02:49:11.785Z,4.68
2017-12-29T02:51:39.931Z,3.03
2017-12-29T02:54:08.815Z,3.37
2017-12-29T02:56:37.725Z,2.78
2017-12-29T02:59:06.615Z,3.03
2017-12-29T03:01:34.727Z,2.30
2017-12-29T03:04:02.845Z,2.45
2017-12-29T03:06:31.736Z,2.50
2017-12-29T03:09:00.631Z,2.92
2017-12-29T03:11:29.516Z,3.90
2017-12-29T03:13:58.411Z,3.65
2017-12-29T03:16:27.303Z,3.50
2017-12-29T03:18:55.406Z,3.55
2017-12-29T03:21:23.528Z,3.80
2017-12-29T03:23:51.643Z,3.60
2017-12-29T03:26:19.743Z,3.25
2017-12-29T03:28:47.875Z,3.20
2017-12-29T03:31:16.773Z,2.67
2017-12-29T03:33:45.667Z,3.00
2017-12-29T03:36:13.816Z,3.70
2017-12-29T03:38:41.923Z,2.40
2017-12-29T03:41:10.043Z,3.22
2017-12-29T03:43:38.189Z,4.00
2017-12-29T03:46:06.351Z,3.25
2017-12-29T03:48:34.479Z,2.40
2017-12-29T03:51:02.616Z,2.72
2017-12-29T03:53:30.728Z,3.10
2017-12-29T03:55:58.843Z,3.20
2017-12-29T03:58:26.980Z,3.20
2017-12-29T04:00:55.852Z,3.22
2017-12-29T04:03:23.969Z,3.42
2017-12-29T04:05:52.133Z,2.97
2017-12-29T04:08:20.247Z,3.47
2017-12-29T04:10:48.357Z,3.47
2017-12-29T04:13:17.259Z,2.97
2017-12-29T04:15:46.140Z,3.20
2017-12-29T04:18:15.031Z,2.95
2017-12-29T04:20:43.172Z,3.10
2017-12-29T04:23:11.279Z,3.10
2017-12-29T04:25:40.164Z,3.08
2017-12-29T04:28:08.311Z,2.60
2017-12-29T04:30:36.440Z,3.37
2017-12-29T04:33:04.547Z,4.00
2017-12-29T04:35:32.683Z,3.03
2017-12-29T04:38:00.807Z,3.33
2017-12-29T04:40:28.915Z,3.37
2017-12-29T04:42:57.820Z,3.40
2017-12-29T04:45:25.964Z,3.10
2017-12-29T04:47:54.077Z,3.40
2017-12-29T04:50:22.211Z,3.90
2017-12-29T04:52:50.739Z,4.28
2017-12-29T04:55:18.856Z,3.50
2017-12-29T04:57:47.000Z,3.90
2017-12-29T05:00:15.104Z,2.90
2017-12-29T05:02:43.329Z,3.67
2017-12-29T05:05:11.457Z,3.20
2017-12-29T05:07:39.564Z,3.12
2017-12-29T05:10:07.667Z,3.90
2017-12-29T05:12:37.012Z,3.08
2017-12-29T05:15:05.146Z,3.20
2017-12-29T05:17:34.479Z,3.95
2017-12-29T05:20:02.616Z,3.30
2017-12-29T05:22:30.743Z,3.80
2017-12-29T05:24:59.628Z,3.83
2017-12-29T05:27:28.531Z,3.25
2017-12-29T05:29:57.424Z,3.17
2017-12-29T05:32:26.351Z,3.75
2017-12-29T05:34:54.510Z,3.50
2017-12-29T05:37:22.636Z,3.90
2017-12-29T05:39:50.774Z,3.22
2017-12-29T05:42:18.905Z,3.90
2017-12-29T05:44:47.781Z,5.25
2017-12-29T05:47:15.959Z,3.92
2017-12-29T05:49:44.080Z,3.92
2017-12-29T05:52:12.192Z,3.87
2017-12-29T05:54:40.304Z,3.65
2017-12-29T05:57:08.439Z,3.60
2017-12-29T05:59:36.559Z,3.85
2017-12-29T06:02:04.680Z,4.30
2017-12-29T06:04:32.815Z,4.47
2017-12-29T06:07:00.951Z,3.78
2017-12-29T06:09:29.824Z,3.70
2017-12-29T06:11:57.959Z,3.78
2017-12-29T06:14:26.842Z,4.10
2017-12-29T06:16:54.959Z,4.12
2017-12-29T06:19:23.100Z,4.32
2017-12-29T06:21:51.208Z,4.20
2017-12-29T06:24:19.311Z,4.32
2017-12-29T06:26:47.468Z,3.67
2017-12-29T06:29:15.579Z,3.30
2017-12-29T06:31:43.698Z,5.00
2017-12-29T06:34:11.826Z,4.05
2017-12-29T06:36:39.932Z,4.20
2017-12-29T06:39:08.041Z,4.60
2017-12-29T06:41:36.947Z,5.45
2017-12-29T06:44:05.082Z,4.70
2017-12-29T06:46:33.198Z,3.90
2017-12-29T06:49:01.372Z,4.70
2017-12-29T06:51:29.469Z,4.57
2017-12-29T06:53:58.253Z,4.37
2017-12-29T06:56:26.376Z,4.03
2017-12-29T06:58:55.255Z,4.68
2017-12-29T07:01:23.365Z,4.78
2017-12-29T07:03:51.508Z,4.95
2017-12-29T07:06:19.620Z,5.00
2017-12-29T07:08:47.751Z,5.70
2017-12-29T07:11:15.896Z,5.70
2017-12-29T07:13:44.013Z,5.15
2017-12-29T07:16:12.896Z,5.70
2017-12-29T07:18:41.796Z,5.95
2017-12-29T07:21:10.712Z,5.37
2017-12-29T07:23:38.835Z,5.55
2017-12-29T07:26:06.987Z,5.32
2017-12-29T07:28:35.132Z,5.90
2017-12-29T07:31:03.240Z,6.00
2017-12-29T07:33:31.385Z,6.28
2017-12-29T07:35:59.500Z,4.72
2017-12-29T07:38:27.625Z,5.22
2017-12-29T07:40:55.803Z,5.28
2017-12-29T07:43:23.893Z,5.53
2017-12-29T07:45:52.016Z,5.62
2017-12-29T07:48:20.944Z,5.03
2017-12-29T07:50:49.056Z,6.53
2017-12-29T07:53:17.160Z,4.53
2017-12-29T07:55:46.076Z,5.43
2017-12-29T07:58:14.192Z,6.65
2017-12-29T08:00:42.310Z,5.28
2017-12-29T08:03:10.451Z,4.80
2017-12-29T08:05:38.572Z,6.20
2017-12-29T08:08:06.702Z,5.40
2017-12-29T08:10:35.611Z,6.20
2017-12-29T08:13:03.724Z,5.80
2017-12-29T08:15:34.807Z,6.35
2017-12-29T08:18:02.955Z,5.95
2017-12-29T08:20:31.080Z,6.12
2017-12-29T08:22:59.217Z,6.18
2017-12-29T08:25:27.439Z,6.68
2017-12-29T08:27:55.551Z,5.53
2017-12-29T08:30:23.692Z,6.80
2017-12-29T08:32:52.536Z,6.35
2017-12-29T08:35:20.749Z,6.62
2017-12-29T08:37:48.928Z,4.97
2017-12-29T08:40:17.093Z,5.90
2017-12-29T08:42:45.217Z,6.35
2017-12-29T08:45:13.447Z,6.20
2017-12-29T08:47:41.570Z,7.07
2017-12-29T08:50:09.701Z,6.62
2017-12-29T08:52:37.865Z,6.43
2017-12-29T08:55:06.734Z,6.62
2017-12-29T08:57:35.626Z,5.40
2017-12-29T09:00:04.529Z,5.53
2017-12-29T09:02:32.632Z,5.60
2017-12-29T09:05:00.772Z,5.97
2017-12-29T09:07:29.679Z,5.90
2017-12-29T09:09:58.220Z,5.18
2017-12-29T09:12:26.593Z,4.37
2017-12-29T09:14:54.765Z,4.70
2017-12-29T09:17:22.900Z,4.60
2017-12-29T09:19:53.469Z,5.78
2017-12-29T09:22:22.805Z,5.18
2017-12-29T09:24:51.683Z,4.80
2017-12-29T09:27:21.432Z,5.62
2017-12-29T09:29:49.564Z,4.85
2017-12-29T09:32:18.438Z,4.43
2017-12-29T09:34:46.549Z,5.50
2017-12-29T09:37:14.820Z,5.12
2017-12-29T09:39:42.951Z,4.15
2017-12-29T09:42:11.127Z,5.45
2017-12-29T09:44:39.247Z,6.07
2017-12-29T09:47:08.611Z,5.32
2017-12-29T09:49:36.740Z,5.15
2017-12-29T09:52:04.883Z,5.20
2017-12-29T09:54:33.812Z,4.82
2017-12-29T09:57:02.702Z,5.35
2017-12-29T09:59:30.844Z,5.60
2017-12-29T10:01:59.437Z,5.47
2017-12-29T10:04:28.777Z,4.60
2017-12-29T10:06:56.942Z,5.62
2017-12-29T10:09:25.779Z,5.28
2017-12-29T10:11:56.824Z,5.03
2017-12-29T10:14:25.812Z,4.62
2017-12-29T10:16:54.691Z,5.20
2017-12-29T10:19:22.828Z,5.05
2017-12-29T10:21:50.945Z,4.90
2017-12-29T10:24:20.088Z,4.22
2017-12-29T10:26:48.236Z,5.10
2017-12-29T10:29:17.119Z,3.80
2017-12-29T10:31:46.007Z,3.95
2017-12-29T10:34:14.964Z,4.32
2017-12-29T10:36:43.089Z,4.32
2017-12-29T10:39:11.972Z,4.72
2017-12-29T10:41:40.892Z,5.18
2017-12-29T10:44:09.001Z,3.97
2017-12-29T10:46:37.125Z,5.40
2017-12-29T10:49:05.285Z,3.80
2017-12-29T10:51:34.161Z,4.43
2017-12-29T10:54:03.049Z,5.53
2017-12-29T10:56:31.204Z,4.30
2017-12-29T10:58:59.434Z,4.65
2017-12-29T11:01:27.564Z,5.30
2017-12-29T11:03:55.760Z,4.03
2017-12-29T11:06:24.628Z,5.15
2017-12-29T11:08:52.744Z,4.40
2017-12-29T11:11:20.891Z,3.67
2017-12-29T11:13:49.772Z,4.20
2017-12-29T11:16:17.928Z,4.30
2017-12-29T11:18:46.089Z,4.95
2017-12-29T11:21:14.287Z,4.93
2017-12-29T11:23:42.421Z,3.65
2017-12-29T11:26:10.568Z,4.20
2017-12-29T11:28:38.691Z,5.80
2017-12-29T11:31:06.817Z,4.40
2017-12-29T11:33:34.961Z,3.58
2017-12-29T11:36:03.150Z,4.10
2017-12-29T11:38:31.300Z,3.40
2017-12-29T11:40:59.456Z,3.30
2017-12-29T11:43:27.589Z,3.25
2017-12-29T11:45:55.700Z,3.53
2017-12-29T11:48:23.845Z,3.60
2017-12-29T11:50:51.972Z,4.10
2017-12-29T11:53:20.113Z,3.17
2017-12-29T11:55:48.275Z,4.35
2017-12-29T11:58:16.402Z,3.75
2017-12-29T12:00:45.280Z,3.12
2017-12-29T12:03:13.424Z,2.97
2017-12-29T12:05:41.540Z,3.55
2017-12-29T12:08:10.439Z,3.03
2017-12-29T12:10:39.345Z,3.17
2017-12-29T12:13:07.462Z,3.87
2017-12-29T12:15:35.592Z,3.80
2017-12-29T12:18:03.747Z,4.40
2017-12-29T12:20:32.633Z,3.08
2017-12-29T12:23:01.545Z,2.60
2017-12-29T12:25:29.687Z,3.12
2017-12-29T12:27:57.804Z,2.90
2017-12-29T12:30:25.925Z,2.20
2017-12-29T12:32:54.088Z,3.70
2017-12-29T12:35:22.207Z,2.85
2017-12-29T12:37:50.339Z,3.25
2017-12-29T12:40:18.485Z,2.60
2017-12-29T12:42:46.609Z,2.90
2017-12-29T12:45:15.484Z,3.22
2017-12-29T12:47:43.621Z,3.47
2017-12-29T12:50:11.848Z,2.50
2017-12-29T12:52:39.953Z,2.20
2017-12-29T12:55:08.096Z,2.95
2017-12-29T12:57:36.984Z,2.60
2017-12-29T13:00:05.908Z,2.92
2017-12-29T13:02:34.036Z,3.03
2017-12-29T13:05:02.145Z,3.10
2017-12-29T13:07:31.019Z,3.58
2017-12-29T13:09:59.927Z,2.90
2017-12-29T13:12:28.045Z,3.30
2017-12-29T13:14:56.158Z,2.95
2017-12-29T13:17:25.065Z,2.83
2017-12-29T13:19:53.169Z,2.30
2017-12-29T13:22:21.296Z,3.17
2017-12-29T13:24:50.216Z,2.92
2017-12-29T13:27:18.332Z,2.95
2017-12-29T13:29:46.449Z,4.20
2017-12-29T13:32:14.596Z,3.00
2017-12-29T13:34:43.500Z,3.17
2017-12-29T13:37:12.401Z,2.62
2017-12-29T13:39:41.297Z,4.30
2017-12-29T13:42:09.420Z,3.90
2017-12-29T13:44:37.558Z,4.07
2017-12-29T13:47:05.721Z,3.72
2017-12-29T13:49:33.830Z,4.85
2017-12-29T13:52:01.958Z,4.22
2017-12-29T13:54:30.128Z,4.72
2017-12-29T13:56:59.036Z,3.30
2017-12-29T13:59:27.156Z,2.78
2017-12-29T14:01:55.299Z,3.58
2017-12-29T14:04:23.438Z,2.75
2017-12-29T14:06:52.332Z,3.10
2017-12-29T14:09:21.240Z,3.45
2017-12-29T14:11:49.360Z,3.20
2017-12-29T14:14:17.526Z,3.65
2017-12-29T14:16:45.673Z,3.33
2017-12-29T14:19:13.798Z,3.50
2017-12-29T14:21:42.684Z,4.25
2017-12-29T14:24:11.613Z,4.05
2017-12-29T14:26:39.733Z,4.53
2017-12-29T14:29:07.840Z,4.60
2017-12-29T14:31:36.748Z,4.62
2017-12-29T14:34:04.924Z,3.90
2017-12-29T14:36:33.039Z,4.95
2017-12-29T14:39:01.172Z,5.72
2017-12-29T14:41:29.288Z,5.35
2017-12-29T14:43:57.415Z,4.95
2017-12-29T14:46:25.640Z,5.80
2017-12-29T14:48:53.762Z,6.62
2017-12-29T14:51:21.881Z,6.05
2017-12-29T14:53:50.013Z,6.72
2017-12-29T14:56:18.145Z,6.62
2017-12-29T14:58:46.254Z,7.03
2017-12-29T15:01:14.443Z,7.97
2017-12-29T15:03:42.598Z,5.70
2017-12-29T15:06:10.736Z,7.57
2017-12-29T15:08:38.878Z,7.57
2017-12-29T15:11:06.991Z,7.80
2017-12-29T15:13:35.885Z,6.50
2017-12-29T15:16:04.792Z,6.30
2017-12-29T15:18:33.665Z,6.12
2017-12-29T15:21:02.583Z,5.85
2017-12-29T15:23:30.737Z,6.18
2017-12-29T15:25:59.616Z,7.25
2017-12-29T15:28:27.741Z,7.03
2017-12-29T15:30:55.885Z,7.78
2017-12-29T15:33:24.770Z,8.07
2017-12-29T15:35:53.683Z,7.75
2017-12-29T15:38:21.856Z,8.88
2017-12-29T15:40:53.784Z,7.60
2017-12-29T15:43:22.729Z,6.97
2017-12-29T15:45:50.846Z,7.05
2017-12-29T15:48:19.020Z,7.57
2017-12-29T15:50:48.824Z,7.57
2017-12-29T15:53:16.989Z,6.87
2017-12-29T15:55:45.132Z,6.10
2017-12-29T15:58:13.274Z,7.90
2017-12-29T16:00:42.151Z,6.70
2017-12-29T16:03:11.032Z,7.10
2017-12-29T16:05:39.189Z,6.68
2017-12-29T16:08:07.303Z,8.10
2017-12-29T16:10:36.197Z,7.75
2017-12-29T16:13:04.356Z,7.35
2017-12-29T16:15:33.278Z,8.98
2017-12-29T16:18:02.176Z,7.22
2017-12-29T16:20:30.329Z,7.93
2017-12-29T16:22:58.489Z,6.97
2017-12-29T16:25:27.375Z,8.23
2017-12-29T16:27:55.529Z,7.10
2017-12-29T16:30:23.666Z,5.75
2017-12-29T16:32:52.268Z,5.95
2017-12-29T16:35:20.471Z,5.32
2017-12-29T16:37:49.375Z,4.78
2017-12-29T16:40:18.260Z,5.90
2017-12-29T16:42:47.184Z,6.00
2017-12-29T16:45:15.305Z,5.75
2017-12-29T16:47:43.457Z,5.55
2017-12-29T16:50:11.707Z,4.90
2017-12-29T16:52:39.805Z,5.40
2017-12-29T16:55:07.930Z,5.60
2017-12-29T16:57:36.851Z,5.60
2017-12-29T17:00:04.984Z,6.20
2017-12-29T17:02:33.963Z,4.97
2017-12-29T17:05:02.140Z,5.78
2017-12-29T17:07:30.360Z,4.80
2017-12-29T17:09:58.496Z,4.53
2017-12-29T17:12:26.633Z,4.50
2017-12-29T17:14:54.758Z,4.87
2017-12-29T17:17:23.652Z,6.60
2017-12-29T17:19:51.796Z,7.05
2017-12-29T17:22:19.913Z,10.30
2017-12-29T17:24:48.096Z,5.70
2017-12-29T17:27:16.241Z,6.68
2017-12-29T17:29:45.155Z,6.50
2017-12-29T17:32:13.247Z,4.68
2017-12-29T17:34:42.172Z,5.12
2017-12-29T17:37:10.274Z,4.10
2017-12-29T17:39:39.181Z,4.65
2017-12-29T17:42:07.327Z,4.87
2017-12-29T17:44:36.232Z,5.57
2017-12-29T17:47:06.112Z,5.00
2017-12-29T17:49:34.339Z,5.37
2017-12-29T17:52:02.488Z,5.30
2017-12-29T17:54:31.431Z,3.83
2017-12-29T17:56:59.602Z,4.32
2017-12-29T17:59:28.527Z,3.30
2017-12-29T18:01:56.645Z,3.40
2017-12-29T18:04:24.793Z,3.47
2017-12-29T18:06:53.676Z,4.70
2017-12-29T18:09:21.799Z,3.50
2017-12-29T18:11:49.954Z,3.95
2017-12-29T18:14:18.092Z,3.90
2017-12-29T18:16:46.218Z,3.33
2017-12-29T18:19:14.361Z,4.15
2017-12-29T18:21:42.492Z,3.50
2017-12-29T18:24:10.604Z,3.90
2017-12-29T18:26:39.520Z,4.00
2017-12-29T18:29:07.635Z,2.47
2017-12-29T18:31:35.804Z,3.50
2017-12-29T18:34:03.988Z,2.45
2017-12-29T18:36:32.092Z,2.40
2017-12-29T18:39:00.999Z,2.17
2017-12-29T18:41:29.180Z,3.00
2017-12-29T18:43:57.296Z,2.33
2017-12-29T18:46:25.476Z,2.80
2017-12-29T18:48:53.660Z,3.10
2017-12-29T18:51:21.767Z,4.00
2017-12-29T18:53:49.888Z,3.97
2017-12-29T18:56:18.115Z,3.87
2017-12-29T18:58:46.229Z,3.95
2017-12-29T19:01:14.366Z,3.58
2017-12-29T19:03:42.524Z,5.10
2017-12-29T19:06:10.673Z,4.05
2017-12-29T19:08:38.799Z,5.43
2017-12-29T19:11:06.972Z,4.60
2017-12-29T19:13:35.152Z,4.70
2017-12-29T19:16:03.362Z,3.50
2017-12-29T19:18:31.502Z,4.43
2017-12-29T19:20:59.664Z,4.15
2017-12-29T19:23:27.853Z,3.67
2017-12-29T19:25:56.013Z,3.70
2017-12-29T19:28:24.161Z,6.07
2017-12-29T19:30:53.042Z,4.72
2017-12-29T19:33:22.016Z,3.78
2017-12-29T19:35:50.131Z,5.15
2017-12-29T19:38:18.247Z,5.00
2017-12-29T19:40:46.463Z,5.57
2017-12-29T19:43:15.335Z,4.75
2017-12-29T19:45:43.460Z,5.72
2017-12-29T19:48:11.580Z,5.07
2017-12-29T19:50:40.494Z,6.20
2017-12-29T19:53:08.623Z,6.20
2017-12-29T19:55:36.776Z,6.25
2017-12-29T19:58:04.926Z,6.12
2017-12-29T20:00:33.076Z,5.80
2017-12-29T20:03:01.233Z,5.10
2017-12-29T20:05:29.353Z,5.78
2017-12-29T20:07:57.482Z,5.40
2017-12-29T20:10:25.625Z,6.45
2017-12-29T20:12:54.370Z,4.85
2017-12-29T20:15:23.272Z,5.05
2017-12-29T20:17:51.431Z,5.90
2017-12-29T20:20:20.301Z,6.10
2017-12-29T20:22:48.404Z,3.95
2017-12-29T20:25:16.583Z,5.30
2017-12-29T20:27:44.712Z,5.50
2017-12-29T20:30:12.848Z,5.00
2017-12-29T20:32:41.012Z,4.00
2017-12-29T20:35:09.128Z,5.30
2017-12-29T20:37:37.268Z,5.03
2017-12-29T20:40:05.436Z,5.18
2017-12-29T20:42:33.566Z,4.50
2017-12-29T20:45:02.458Z,4.55
2017-12-29T20:47:30.588Z,4.62
2017-12-29T20:49:58.736Z,4.93
2017-12-29T20:52:26.910Z,5.43
2017-12-29T20:54:55.065Z,6.53
2017-12-29T20:57:23.988Z,5.72
2017-12-29T20:59:52.138Z,5.78
2017-12-29T21:02:20.280Z,7.03
2017-12-29T21:04:48.394Z,6.00
2017-12-29T21:07:16.511Z,6.68
2017-12-29T21:09:44.644Z,5.60
2017-12-29T21:12:12.763Z,6.60
2017-12-29T21:14:40.871Z,6.55
2017-12-29T21:17:09.882Z,5.37
2017-12-29T21:19:38.005Z,7.25
2017-12-29T21:22:06.152Z,6.87
2017-12-29T21:24:34.316Z,6.32
2017-12-29T21:27:02.497Z,7.80
2017-12-29T21:29:30.642Z,7.70
2017-12-29T21:31:58.772Z,8.02
2017-12-29T21:34:26.929Z,8.20
2017-12-29T21:36:55.056Z,8.68
2017-12-29T21:39:23.322Z,7.20
2017-12-29T21:41:52.229Z,8.18
2017-12-29T21:44:20.353Z,7.45
2017-12-29T21:46:48.512Z,7.47
2017-12-29T21:49:16.632Z,7.97
2017-12-29T21:51:45.972Z,7.97
2017-12-29T21:54:14.158Z,8.23
2017-12-29T21:56:42.306Z,6.75
2017-12-29T21:59:10.436Z,7.15
2017-12-29T22:01:38.586Z,5.78
2017-12-29T22:04:07.147Z,5.65
2017-12-29T22:06:35.220Z,5.78
2017-12-29T22:09:03.365Z,5.80
2017-12-29T22:11:32.273Z,5.40
2017-12-29T22:14:00.420Z,5.72
2017-12-29T22:16:29.349Z,4.40
2017-12-29T22:18:57.451Z,4.60
2017-12-29T22:21:25.603Z,5.87
2017-12-29T22:23:53.749Z,4.45
2017-12-29T22:26:21.876Z,5.00
2017-12-29T22:28:50.005Z,4.05
2017-12-29T22:31:18.166Z,4.15
2017-12-29T22:33:46.304Z,3.62
2017-12-29T22:36:14.435Z,3.97
2017-12-29T22:38:42.575Z,3.85
2017-12-29T22:41:11.460Z,3.60
2017-12-29T22:43:40.359Z,3.45
2017-12-29T22:46:09.262Z,3.33
2017-12-29T22:48:38.141Z,4.07
2017-12-29T22:51:07.053Z,3.60
2017-12-29T22:53:35.210Z,4.28
2017-12-29T22:56:04.129Z,3.85
2017-12-29T22:58:32.272Z,3.72
2017-12-29T23:01:01.173Z,4.15
2017-12-29T23:03:29.309Z,3.00
2017-12-29T23:05:57.574Z,2.70
2017-12-29T23:08:25.806Z,3.17
2017-12-29T23:10:53.952Z,2.60
2017-12-29T23:13:22.840Z,3.40
2017-12-29T23:15:50.985Z,3.62
2017-12-29T23:18:19.095Z,2.87
2017-12-29T23:20:47.989Z,4.53
2017-12-29T23:23:16.933Z,3.33
2017-12-29T23:25:45.253Z,3.45
2017-12-29T23:28:13.405Z,3.92
2017-12-29T23:30:41.541Z,3.85
2017-12-29T23:33:09.663Z,3.97
2017-12-29T23:35:37.792Z,3.95
2017-12-29T23:38:05.949Z,3.78
2017-12-29T23:40:34.097Z,4.60
2017-12-29T23:43:03.116Z,5.68
2017-12-29T23:45:31.269Z,4.03
2017-12-29T23:48:00.153Z,4.40
2017-12-29T23:50:29.043Z,4.30
2017-12-29T23:52:57.936Z,3.30
2017-12-29T23:55:26.804Z,3.35
2017-12-29T23:57:55.029Z,4.65
